sensor_id;sensor_type;location;lat;lon;timestamp;pressure;altitude;pressure_sealevel;temperature;humidity
62152;BME280;48139;47.474;19.034;2023-04-20T03:45:09;100333.50;;;8.39;100.00
62152;BME280;48139;47.474;19.034;2023-04-20T03:48:13;100333.50;;;8.39;100.00
62152;BME280;48139;47.474;19.034;2023-04-20T03:51:16;100334.91;;;8.01;100.00
62152;BME280;48139;47.474;19.034;2023-04-20T03:54:19;100335.31;;;8.14;100.00
62152;BME280;48139;47.474;19.034;2023-04-20T03:57:21;100333.22;;;8.23;100.00
62152;BME280;48139;47.474;19.034;2023-04-20T04:00:24;100340.56;;;8.37;100.00
62152;BME280;48139;47.474;19.034;2023-04-20T04:03:30;100345.16;;;8.52;100.00
62152;BME280;48139;47.474;19.034;2023-04-20T04:06:33;100344.69;;;8.64;100.00
62152;BME280;48139;47.474;19.034;2023-04-20T04:09:36;100338.06;;;8.77;100.00
62152;BME280;48139;47.474;19.034;2023-04-20T04:12:38;100338.53;;;8.87;100.00
62152;BME280;48139;47.474;19.034;2023-04-20T04:15:41;100341.69;;;8.95;100.00
62152;BME280;48139;47.474;19.034;2023-04-20T04:18:44;100348.31;;;9.04;100.00
62152;BME280;48139;47.474;19.034;2023-04-20T04:21:46;100341.59;;;9.18;100.00
62152;BME280;48139;47.474;19.034;2023-04-20T04:24:49;100343.72;;;9.30;100.00
62152;BME280;48139;47.474;19.034;2023-04-20T04:27:52;100340.06;;;9.35;100.00
62152;BME280;48139;47.474;19.034;2023-04-20T04:30:56;100343.25;;;9.41;100.00
62152;BME280;48139;47.474;19.034;2023-04-20T04:33:58;100341.09;;;9.51;100.00
62152;BME280;48139;47.474;19.034;2023-04-20T04:37:01;100347.69;;;9.59;100.00
62152;BME280;48139;47.474;19.034;2023-04-20T04:40:05;100349.19;;;9.65;100.00
62152;BME280;48139;47.474;19.034;2023-04-20T04:43:13;100337.31;;;9.58;100.00
62152;BME280;48139;47.474;19.034;2023-04-20T04:46:18;100340.19;;;9.52;100.00
62152;BME280;48139;47.474;19.034;2023-04-20T04:49:22;100336.88;;;9.48;100.00
62152;BME280;48139;47.474;19.034;2023-04-20T04:52:26;100346.25;;;9.52;100.00
62152;BME280;48139;47.474;19.034;2023-04-20T04:55:29;100353.06;;;9.56;100.00
62152;BME280;48139;47.474;19.034;2023-04-20T04:58:32;100349.19;;;9.65;100.00
62152;BME280;48139;47.474;19.034;2023-04-20T05:01:34;100346.31;;;9.71;100.00
62152;BME280;48139;47.474;19.034;2023-04-20T05:04:37;100352.97;;;9.78;100.00
62152;BME280;48139;47.474;19.034;2023-04-20T05:07:40;100355.13;;;9.89;100.00
62152;BME280;48139;47.474;19.034;2023-04-20T05:10:42;100352.41;;;10.10;100.00
62152;BME280;48139;47.474;19.034;2023-04-20T05:13:45;100360.22;;;10.31;100.00
62152;BME280;48139;47.474;19.034;2023-04-20T05:16:47;100357.47;;;10.52;100.00
62152;BME280;48139;47.474;19.034;2023-04-20T05:19:50;100357.31;;;10.74;100.00
62152;BME280;48139;47.474;19.034;2023-04-20T05:22:52;100361.25;;;10.83;100.00
62152;BME280;48139;47.474;19.034;2023-04-20T05:25:55;100360.59;;;10.97;100.00
62152;BME280;48139;47.474;19.034;2023-04-20T05:28:58;100354.50;;;11.13;100.00
62152;BME280;48139;47.474;19.034;2023-04-20T05:32:00;100359.06;;;11.27;100.00
62152;BME280;48139;47.474;19.034;2023-04-20T05:35:03;100355.16;;;11.36;100.00
62152;BME280;48139;47.474;19.034;2023-04-20T05:38:06;100362.22;;;11.51;100.00
62152;BME280;48139;47.474;19.034;2023-04-20T05:41:08;100367.22;;;11.74;100.00
62152;BME280;48139;47.474;19.034;2023-04-20T05:44:11;100364.22;;;11.97;100.00
62152;BME280;48139;47.474;19.034;2023-04-20T05:47:14;100360.22;;;12.39;100.00
62152;BME280;48139;47.474;19.034;2023-04-20T05:50:18;100354.12;;;12.85;100.00
62152;BME280;48139;47.474;19.034;2023-04-20T05:53:21;100365.09;;;13.08;100.00
62152;BME280;48139;47.474;19.034;2023-04-20T05:56:23;100363.28;;;13.40;87.66
62152;BME280;48139;47.474;19.034;2023-04-20T05:59:27;100375.91;;;13.63;80.72
62152;BME280;48139;47.474;19.034;2023-04-20T06:02:29;100370.28;;;13.25;82.36
62152;BME280;48139;47.474;19.034;2023-04-20T06:05:32;100373.75;;;13.25;82.35
62152;BME280;48139;47.474;19.034;2023-04-20T06:08:35;100374.78;;;13.23;83.42
62152;BME280;48139;47.474;19.034;2023-04-20T06:11:38;100384.31;;;13.40;83.79
62152;BME280;48139;47.474;19.034;2023-04-20T06:14:40;100379.63;;;13.15;85.10
62152;BME280;48139;47.474;19.034;2023-04-20T06:17:43;100377.13;;;13.12;84.85
62152;BME280;48139;47.474;19.034;2023-04-20T06:20:45;100383.78;;;13.19;86.21
62152;BME280;48139;47.474;19.034;2023-04-20T06:23:49;100388.53;;;13.28;85.09
62152;BME280;48139;47.474;19.034;2023-04-20T06:26:51;100388.22;;;13.48;83.23
62152;BME280;48139;47.474;19.034;2023-04-20T06:29:54;100389.63;;;13.54;81.52
62152;BME280;48139;47.474;19.034;2023-04-20T06:32:56;100386.28;;;13.66;81.04
62152;BME280;48139;47.474;19.034;2023-04-20T06:35:59;100381.38;;;13.60;79.69
62152;BME280;48139;47.474;19.034;2023-04-20T06:39:02;100390.06;;;13.76;79.41
62152;BME280;48139;47.474;19.034;2023-04-20T06:42:05;100391.59;;;13.80;78.08
62152;BME280;48139;47.474;19.034;2023-04-20T06:45:09;100394.66;;;13.87;79.94
62152;BME280;48139;47.474;19.034;2023-04-20T06:48:12;100385.56;;;14.06;77.27
62152;BME280;48139;47.474;19.034;2023-04-20T06:51:39;100396.31;;;14.18;76.82
62152;BME280;48139;47.474;19.034;2023-04-20T06:54:42;100387.38;;;14.34;74.91
62152;BME280;48139;47.474;19.034;2023-04-20T06:57:44;100388.88;;;14.38;75.41
62152;BME280;48139;47.474;19.034;2023-04-20T07:00:47;100392.53;;;14.50;74.42
62152;BME280;48139;47.474;19.034;2023-04-20T07:03:49;100389.56;;;14.83;70.65
62152;BME280;48139;47.474;19.034;2023-04-20T07:06:54;100386.94;;;14.83;68.57
62152;BME280;48139;47.474;19.034;2023-04-20T07:09:56;100394.06;;;14.95;68.28
62152;BME280;48139;47.474;19.034;2023-04-20T07:12:59;100401.34;;;14.91;70.37
62152;BME280;48139;47.474;19.034;2023-04-20T07:16:01;100399.34;;;14.95;69.07
62152;BME280;48139;47.474;19.034;2023-04-20T07:19:04;100396.78;;;14.93;66.51
62152;BME280;48139;47.474;19.034;2023-04-20T07:22:07;100394.03;;;15.09;65.08
62152;BME280;48139;47.474;19.034;2023-04-20T07:25:10;100390.75;;;15.18;64.81
62152;BME280;48139;47.474;19.034;2023-04-20T07:28:12;100386.91;;;15.24;63.16
62152;BME280;48139;47.474;19.034;2023-04-20T07:31:15;100394.41;;;15.30;61.75
62152;BME280;48139;47.474;19.034;2023-04-20T07:34:18;100391.66;;;15.31;60.11
62152;BME280;48139;47.474;19.034;2023-04-20T07:37:22;100398.62;;;15.06;60.71
62152;BME280;48139;47.474;19.034;2023-04-20T07:40:27;100396.94;;;15.31;60.52
62152;BME280;48139;47.474;19.034;2023-04-20T07:43:30;100399.78;;;15.28;58.39
62152;BME280;48139;47.474;19.034;2023-04-20T07:46:32;100391.66;;;15.31;57.17
62152;BME280;48139;47.474;19.034;2023-04-20T07:49:36;100394.72;;;15.38;57.91
62152;BME280;48139;47.474;19.034;2023-04-20T07:52:39;100404.97;;;15.69;56.02
62152;BME280;48139;47.474;19.034;2023-04-20T07:55:42;100403.72;;;16.00;55.91
62152;BME280;48139;47.474;19.034;2023-04-20T07:58:45;100399.72;;;15.95;53.69
62152;BME280;48139;47.474;19.034;2023-04-20T08:01:47;100401.50;;;16.07;54.61
62152;BME280;48139;47.474;19.034;2023-04-20T08:04:58;100403.94;;;16.23;56.10
62152;BME280;48139;47.474;19.034;2023-04-20T08:08:00;100392.28;;;16.38;53.74
62152;BME280;48139;47.474;19.034;2023-04-20T08:11:03;100397.88;;;16.46;52.47
62152;BME280;48139;47.474;19.034;2023-04-20T08:14:05;100396.72;;;16.37;50.20
62152;BME280;48139;47.474;19.034;2023-04-20T08:17:09;100397.56;;;16.50;50.17
62152;BME280;48139;47.474;19.034;2023-04-20T08:20:11;100394.50;;;16.44;50.77
62152;BME280;48139;47.474;19.034;2023-04-20T08:23:14;100388.06;;;16.48;50.07
62152;BME280;48139;47.474;19.034;2023-04-20T08:26:16;100380.53;;;16.54;50.91
62152;BME280;48139;47.474;19.034;2023-04-20T08:29:19;100389.59;;;16.76;50.98
62152;BME280;48139;47.474;19.034;2023-04-20T08:32:22;100388.19;;;16.83;51.01
62152;BME280;48139;47.474;19.034;2023-04-20T08:35:28;100389.59;;;17.00;50.33
62152;BME280;48139;47.474;19.034;2023-04-20T08:38:30;100387.03;;;17.11;48.90
62152;BME280;48139;47.474;19.034;2023-04-20T08:41:35;100391.94;;;17.04;50.13
62152;BME280;48139;47.474;19.034;2023-04-20T08:44:38;100387.69;;;17.25;51.01
62152;BME280;48139;47.474;19.034;2023-04-20T08:47:41;100392.22;;;17.36;48.97
62152;BME280;48139;47.474;19.034;2023-04-20T08:50:44;100379.91;;;17.35;50.35
62152;BME280;48139;47.474;19.034;2023-04-20T08:53:47;100377.03;;;17.38;49.20
62152;BME280;48139;47.474;19.034;2023-04-20T08:56:50;100383.28;;;17.61;49.57
62152;BME280;48139;47.474;19.034;2023-04-20T08:59:53;100385.59;;;17.65;47.33
62152;BME280;48139;47.474;19.034;2023-04-20T09:02:56;100382.53;;;17.59;46.46
62152;BME280;48139;47.474;19.034;2023-04-20T09:06:04;100387.59;;;17.62;45.18
62152;BME280;48139;47.474;19.034;2023-04-20T09:09:10;100395.38;;;17.87;47.61
62152;BME280;48139;47.474;19.034;2023-04-20T09:12:13;100385.53;;;18.11;45.41
62152;BME280;48139;47.474;19.034;2023-04-20T09:15:27;100386.50;;;18.33;46.83
62152;BME280;48139;47.474;19.034;2023-04-20T09:18:31;100386.84;;;18.50;45.07
62152;BME280;48139;47.474;19.034;2023-04-20T09:21:33;100382.91;;;18.67;44.35
62152;BME280;48139;47.474;19.034;2023-04-20T09:24:38;100384.12;;;19.06;43.68
62152;BME280;48139;47.474;19.034;2023-04-20T09:27:40;100385.28;;;18.92;42.61
62152;BME280;48139;47.474;19.034;2023-04-20T09:30:47;100383.03;;;18.66;39.67
62152;BME280;48139;47.474;19.034;2023-04-20T09:34:02;100383.41;;;18.61;41.18
62152;BME280;48139;47.474;19.034;2023-04-20T09:37:08;100381.28;;;18.87;41.24
62152;BME280;48139;47.474;19.034;2023-04-20T09:40:10;100389.78;;;19.13;42.52
62152;BME280;48139;47.474;19.034;2023-04-20T09:43:23;100377.28;;;19.24;39.64
62152;BME280;48139;47.474;19.034;2023-04-20T09:46:30;100372.72;;;19.26;39.57
62152;BME280;48139;47.474;19.034;2023-04-20T09:49:34;100373.44;;;19.28;39.56
62152;BME280;48139;47.474;19.034;2023-04-20T09:52:37;100374.12;;;19.10;40.03
62152;BME280;48139;47.474;19.034;2023-04-20T09:55:44;100376.59;;;19.22;38.91
62152;BME280;48139;47.474;19.034;2023-04-20T09:58:48;100371.25;;;19.33;40.60
62152;BME280;48139;47.474;19.034;2023-04-20T10:01:51;100369.31;;;19.36;39.32
62152;BME280;48139;47.474;19.034;2023-04-20T10:04:54;100366.34;;;19.18;40.38
62152;BME280;48139;47.474;19.034;2023-04-20T10:08:00;100364.47;;;19.09;40.45
62152;BME280;48139;47.474;19.034;2023-04-20T10:11:03;100366.31;;;19.29;41.51
62152;BME280;48139;47.474;19.034;2023-04-20T10:17:30;100360.53;;;19.77;39.86
62152;BME280;48139;47.474;19.034;2023-04-20T10:20:33;100364.09;;;19.66;40.00
62152;BME280;48139;47.474;19.034;2023-04-20T10:23:47;100358.28;;;19.40;41.01
62152;BME280;48139;47.474;19.034;2023-04-20T10:26:49;100342.22;;;19.42;43.52
62152;BME280;48139;47.474;19.034;2023-04-20T10:29:52;100349.25;;;19.63;43.71
62152;BME280;48139;47.474;19.034;2023-04-20T10:33:09;100345.66;;;19.95;42.52
62152;BME280;48139;47.474;19.034;2023-04-20T10:36:21;100349.28;;;20.24;40.89
62152;BME280;48139;47.474;19.034;2023-04-20T10:39:24;100342.41;;;20.22;40.57
62152;BME280;48139;47.474;19.034;2023-04-20T10:42:28;100340.06;;;20.28;39.97
62152;BME280;48139;47.474;19.034;2023-04-20T10:45:42;100341.44;;;20.23;38.41
62152;BME280;48139;47.474;19.034;2023-04-20T10:48:58;100330.81;;;19.92;41.83
62152;BME280;48139;47.474;19.034;2023-04-20T10:52:02;100332.25;;;20.06;42.66
62152;BME280;48139;47.474;19.034;2023-04-20T10:55:06;100334.56;;;20.20;40.50
62152;BME280;48139;47.474;19.034;2023-04-20T10:58:22;100325.78;;;20.29;45.07
62152;BME280;48139;47.474;19.034;2023-04-20T11:01:30;100323.97;;;20.30;40.01
62152;BME280;48139;47.474;19.034;2023-04-20T11:04:34;100324.03;;;20.49;41.22
62152;BME280;48139;47.474;19.034;2023-04-20T11:07:55;100319.03;;;20.25;38.54
62152;BME280;48139;47.474;19.034;2023-04-20T11:10:58;100316.62;;;20.12;37.81
62152;BME280;48139;47.474;19.034;2023-04-20T11:14:08;100315.94;;;20.20;38.84
62152;BME280;48139;47.474;19.034;2023-04-20T11:17:11;100318.59;;;20.41;41.38
62152;BME280;48139;47.474;19.034;2023-04-20T11:20:14;100304.87;;;20.15;38.08
62152;BME280;48139;47.474;19.034;2023-04-20T11:23:20;100311.81;;;20.37;40.71
62152;BME280;48139;47.474;19.034;2023-04-20T11:26:33;100311.19;;;20.64;38.13
62152;BME280;48139;47.474;19.034;2023-04-20T11:29:38;100305.56;;;20.47;38.92
62152;BME280;48139;47.474;19.034;2023-04-20T11:32:41;100306.00;;;20.52;39.47
62152;BME280;48139;47.474;19.034;2023-04-20T11:35:44;100304.44;;;20.50;39.00
62152;BME280;48139;47.474;19.034;2023-04-20T11:38:47;100301.09;;;20.18;37.88
62152;BME280;48139;47.474;19.034;2023-04-20T11:41:51;100295.97;;;19.95;38.75
62152;BME280;48139;47.474;19.034;2023-04-20T11:44:54;100297.03;;;20.13;38.99
62152;BME280;48139;47.474;19.034;2023-04-20T11:47:57;100297.47;;;20.19;37.01
62152;BME280;48139;47.474;19.034;2023-04-20T11:50:59;100292.81;;;20.51;37.50
62152;BME280;48139;47.474;19.034;2023-04-20T11:54:02;100284.59;;;20.83;36.56
62152;BME280;48139;47.474;19.034;2023-04-20T11:57:05;100294.03;;;21.16;36.36
62152;BME280;48139;47.474;19.034;2023-04-20T12:00:08;100296.09;;;21.03;36.54
62152;BME280;48139;47.474;19.034;2023-04-20T12:03:14;100288.37;;;20.80;36.74
62152;BME280;48139;47.474;19.034;2023-04-20T12:06:18;100282.78;;;20.74;35.67
62152;BME280;48139;47.474;19.034;2023-04-20T12:09:20;100293.00;;;21.07;36.29
62152;BME280;48139;47.474;19.034;2023-04-20T12:12:23;100285.59;;;21.01;34.63
62152;BME280;48139;47.474;19.034;2023-04-20T12:15:27;100287.72;;;21.36;35.80
62152;BME280;48139;47.474;19.034;2023-04-20T12:18:30;100273.38;;;21.08;34.29
62152;BME280;48139;47.474;19.034;2023-04-20T12:21:32;100279.41;;;20.81;34.09
62152;BME280;48139;47.474;19.034;2023-04-20T12:24:36;100276.06;;;20.89;33.23
62152;BME280;48139;47.474;19.034;2023-04-20T12:27:38;100272.41;;;21.00;33.53
62152;BME280;48139;47.474;19.034;2023-04-20T12:30:41;100273.09;;;21.02;32.74
62152;BME280;48139;47.474;19.034;2023-04-20T12:33:43;100275.38;;;21.16;34.50
62152;BME280;48139;47.474;19.034;2023-04-20T12:36:46;100272.97;;;20.84;33.97
62152;BME280;48139;47.474;19.034;2023-04-20T12:39:49;100269.47;;;20.74;32.27
62152;BME280;48139;47.474;19.034;2023-04-20T12:42:51;100259.09;;;20.80;32.78
62152;BME280;48139;47.474;19.034;2023-04-20T12:45:54;100262.31;;;20.93;33.28
62152;BME280;48139;47.474;19.034;2023-04-20T12:48:56;100255.75;;;20.98;33.33
62152;BME280;48139;47.474;19.034;2023-04-20T12:51:59;100255.16;;;20.94;33.75
62152;BME280;48139;47.474;19.034;2023-04-20T12:55:02;100253.63;;;21.01;34.28
62152;BME280;48139;47.474;19.034;2023-04-20T12:58:04;100254.31;;;21.32;32.84
62152;BME280;48139;47.474;19.034;2023-04-20T13:01:07;100249.69;;;21.24;33.81
62152;BME280;48139;47.474;19.034;2023-04-20T13:04:10;100247.16;;;21.32;32.91
62152;BME280;48139;47.474;19.034;2023-04-20T13:07:13;100249.97;;;21.12;32.42
62152;BME280;48139;47.474;19.034;2023-04-20T13:10:16;100244.53;;;21.04;33.15
62152;BME280;48139;47.474;19.034;2023-04-20T13:13:19;100232.72;;;21.06;31.93
62152;BME280;48139;47.474;19.034;2023-04-20T13:16:21;100240.00;;;21.14;32.37
62152;BME280;48139;47.474;19.034;2023-04-20T13:19:24;100226.16;;;21.20;32.86
62152;BME280;48139;47.474;19.034;2023-04-20T13:22:26;100240.28;;;21.40;32.24
62152;BME280;48139;47.474;19.034;2023-04-20T13:25:31;100235.72;;;21.59;32.46
62152;BME280;48139;47.474;19.034;2023-04-20T13:28:34;100231.78;;;21.63;30.30
62152;BME280;48139;47.474;19.034;2023-04-20T13:31:37;100233.03;;;21.69;30.56
62152;BME280;48139;47.474;19.034;2023-04-20T13:34:40;100228.91;;;21.47;31.59
62152;BME280;48139;47.474;19.034;2023-04-20T13:37:43;100225.97;;;21.41;31.07
62152;BME280;48139;47.474;19.034;2023-04-20T13:40:46;100241.28;;;21.19;32.14
62152;BME280;48139;47.474;19.034;2023-04-20T13:43:50;100233.59;;;20.97;30.89
62152;BME280;48139;47.474;19.034;2023-04-20T13:46:52;100233.75;;;20.86;32.12
62152;BME280;48139;47.474;19.034;2023-04-20T13:49:55;100225.19;;;20.73;35.79
62152;BME280;48139;47.474;19.034;2023-04-20T13:52:57;100222.09;;;20.87;33.28
62152;BME280;48139;47.474;19.034;2023-04-20T13:56:00;100222.09;;;20.68;34.00
62152;BME280;48139;47.474;19.034;2023-04-20T13:59:03;100221.56;;;20.55;34.85
62152;BME280;48139;47.474;19.034;2023-04-20T14:02:05;100216.50;;;20.71;32.05
62152;BME280;48139;47.474;19.034;2023-04-20T14:05:10;100218.72;;;20.75;34.04
62152;BME280;48139;47.474;19.034;2023-04-20T14:08:13;100212.00;;;20.90;32.64
62152;BME280;48139;47.474;19.034;2023-04-20T14:11:16;100205.50;;;21.12;31.72
62152;BME280;48139;47.474;19.034;2023-04-20T14:14:19;100206.78;;;21.27;32.15
62152;BME280;48139;47.474;19.034;2023-04-20T14:17:23;100202.47;;;21.17;32.93
62152;BME280;48139;47.474;19.034;2023-04-20T14:20:26;100197.41;;;21.23;32.08
62152;BME280;48139;47.474;19.034;2023-04-20T14:23:28;100202.16;;;21.20;32.67
62152;BME280;48139;47.474;19.034;2023-04-20T14:26:34;100199.06;;;21.05;32.56
62152;BME280;48139;47.474;19.034;2023-04-20T14:29:37;100191.25;;;20.94;32.43
62152;BME280;48139;47.474;19.034;2023-04-20T14:32:39;100182.31;;;20.76;33.15
62152;BME280;48139;47.474;19.034;2023-04-20T14:35:42;100185.00;;;20.66;33.12
62152;BME280;48139;47.474;19.034;2023-04-20T14:38:47;100184.84;;;20.58;32.66
62152;BME280;48139;47.474;19.034;2023-04-20T14:41:49;100187.91;;;20.63;33.69
62152;BME280;48139;47.474;19.034;2023-04-20T14:44:52;100188.78;;;20.54;33.48
62152;BME280;48139;47.474;19.034;2023-04-20T14:47:55;100186.37;;;20.41;32.78
62152;BME280;48139;47.474;19.034;2023-04-20T14:50:58;100183.56;;;20.43;33.37
62152;BME280;48139;47.474;19.034;2023-04-20T14:54:01;100181.59;;;20.45;32.59
62152;BME280;48139;47.474;19.034;2023-04-20T14:57:04;100186.22;;;20.43;33.74
62152;BME280;48139;47.474;19.034;2023-04-20T15:00:08;100180.50;;;20.47;32.79
62152;BME280;48139;47.474;19.034;2023-04-20T15:03:12;100178.81;;;20.56;33.28
62152;BME280;48139;47.474;19.034;2023-04-20T15:06:15;100173.38;;;20.48;32.87
62152;BME280;48139;47.474;19.034;2023-04-20T15:09:18;100178.25;;;20.33;33.39
62152;BME280;48139;47.474;19.034;2023-04-20T15:12:21;100170.41;;;20.41;33.19
62152;BME280;48139;47.474;19.034;2023-04-20T15:15:23;100170.69;;;20.38;33.37
62152;BME280;48139;47.474;19.034;2023-04-20T15:18:39;100169.56;;;20.41;33.77
62152;BME280;48139;47.474;19.034;2023-04-20T15:21:42;100177.00;;;20.47;32.50
62152;BME280;48139;47.474;19.034;2023-04-20T15:24:45;100168.72;;;20.40;34.65
62152;BME280;48139;47.474;19.034;2023-04-20T15:27:50;100176.59;;;20.42;33.95
62152;BME280;48139;47.474;19.034;2023-04-20T15:30:53;100176.94;;;20.28;33.70
62152;BME280;48139;47.474;19.034;2023-04-20T15:33:58;100175.94;;;20.09;34.32
62152;BME280;48139;47.474;19.034;2023-04-20T15:37:01;100176.06;;;20.08;34.36
62152;BME280;48139;47.474;19.034;2023-04-20T15:40:04;100177.81;;;20.38;33.77
62152;BME280;48139;47.474;19.034;2023-04-20T15:43:08;100177.81;;;20.57;33.68
62152;BME280;48139;47.474;19.034;2023-04-20T15:46:11;100179.09;;;20.72;33.18
62152;BME280;48139;47.474;19.034;2023-04-20T15:49:13;100179.94;;;20.73;33.13
62152;BME280;48139;47.474;19.034;2023-04-20T15:52:16;100171.81;;;20.45;33.75
